.
WxDataArchive / Data Records for 2007-01-02
2007-01-01 January 2007 2007-01-03

Data Records for Tuesday, 02 January 2007

Time	Temp	Chill	HIndex	Humid	Dewpt	 Wind 	HiWind	WindDir	Rain 	Barom 
-----	----	-----	------	-----	-----	------	------	-------	-----	----- 
00:00	31.5	31.5	31.5	83	26.9	0	0	---	0.00	30.246 
00:05	31.3	31.3	31.3	84	27.0	0	0	---	0.00	30.246 
00:10	31.2	31.2	31.2	84	26.9	0	0	---	0.00	30.246 
00:15	30.9	30.9	30.9	84	26.6	0	0	---	0.00	30.250 
00:20	30.7	30.7	30.7	85	26.7	0	1	292	0.00	30.250 
00:25	30.6	30.6	30.6	85	26.6	0	0	---	0.00	30.250 
00:30	30.3	30.3	30.3	86	26.6	0	0	---	0.00	30.249 
00:35	30.1	30.1	30.1	86	26.4	0	0	---	0.00	30.249 
00:40	30.0	30.0	30.0	86	26.3	0	0	---	0.00	30.249 
00:45	29.8	29.8	29.8	87	26.4	0	0	---	0.00	30.249 
00:50	29.7	29.7	29.7	87	26.3	0	1	292	0.00	30.249 
00:55	29.5	29.5	29.5	87	26.1	0	0	---	0.00	30.249 
01:00	29.5	29.5	29.5	87	26.1	0	1	292	0.00	30.248 
01:05	29.4	29.4	29.4	88	26.3	0	1	292	0.00	30.248 
01:10	29.5	29.5	29.5	88	26.4	0	1	292	0.00	30.248 
01:15	29.5	29.5	29.5	88	26.4	0	1	292	0.00	30.251 
01:20	29.5	29.5	29.5	88	26.4	0	0	---	0.00	30.251 
01:25	29.4	29.4	29.4	88	26.3	0	1	292	0.00	30.251 
01:30	29.4	29.4	29.4	88	26.3	0	0	---	0.00	30.263 
01:35	29.4	29.4	29.4	88	26.3	0	1	292	0.00	30.263 
01:40	29.4	29.4	29.4	88	26.3	0	1	292	0.00	30.263 
01:45	29.4	29.4	29.4	88	26.3	0	1	292	0.00	30.266 
01:50	29.5	29.5	29.5	88	26.4	0	1	292	0.00	30.266 
01:55	29.5	29.5	29.5	88	26.4	0	1	292	0.00	30.266 
02:00	29.5	29.5	29.5	88	26.4	0	1	292	0.00	30.273 
02:05	29.5	29.5	29.5	88	26.4	0	0	---	0.00	30.273 
02:10	29.5	29.5	29.5	88	26.4	0	1	292	0.00	30.273 
02:15	29.5	29.5	29.5	88	26.4	0	0	---	0.00	30.273 
02:20	29.5	29.5	29.5	87	26.1	0	0	---	0.00	30.273 
02:25	29.4	29.4	29.4	87	26.0	0	0	---	0.00	30.273 
02:30	29.3	29.3	29.3	88	26.2	0	0	---	0.00	30.280 
02:35	29.1	29.1	29.1	88	26.0	0	0	---	0.00	30.280 
02:40	29.1	29.1	29.1	88	26.0	0	0	---	0.00	30.280 
02:45	29.1	29.1	29.1	88	26.0	0	1	292	0.00	30.281 
02:50	29.3	29.3	29.3	88	26.2	0	1	292	0.00	30.281 
02:55	29.4	29.4	29.4	88	26.3	0	1	292	0.00	30.281 
03:00	29.3	29.3	29.3	88	26.2	0	1	292	0.00	30.287 
03:05	29.3	29.3	29.3	88	26.2	0	1	292	0.00	30.287 
03:10	29.3	29.3	29.3	89	26.5	0	1	292	0.00	30.287 
03:15	29.3	29.3	29.3	89	26.5	0	1	292	0.00	30.292 
03:20	29.3	29.3	29.3	89	26.5	0	1	292	0.00	30.292 
03:25	29.0	29.0	29.0	89	26.2	0	1	292	0.00	30.292 
03:30	28.8	28.8	28.8	89	26.0	0	0	---	0.00	30.295 
03:35	28.8	28.8	28.8	89	26.0	0	1	292	0.00	30.295 
03:40	28.7	28.7	28.7	89	25.9	0	0	---	0.00	30.295 
03:45	28.5	28.5	28.5	89	25.7	0	0	---	0.00	30.295 
03:50	28.4	28.4	28.4	90	25.8	0	0	---	0.00	30.295 
03:55	28.4	28.4	28.4	90	25.8	0	0	---	0.00	30.295 
04:00	28.4	28.4	28.4	90	25.8	0	0	---	0.00	30.295 
04:05	28.4	28.4	28.4	90	25.8	0	0	---	0.00	30.295 
04:10	28.2	28.2	28.2	90	25.7	0	0	---	0.00	30.295 
04:15	27.9	27.9	27.9	90	25.4	0	0	---	0.00	30.298 
04:20	27.8	27.8	27.8	90	25.3	0	0	---	0.00	30.298 
04:25	27.6	27.6	27.6	90	25.1	0	1	292	0.00	30.298 
04:30	27.5	27.5	27.5	91	25.2	0	0	---	0.00	30.311 
04:35	27.5	27.5	27.5	91	25.2	0	0	---	0.00	30.311 
04:40	27.2	27.2	27.2	91	24.9	0	0	---	0.00	30.311 
04:45	27.0	27.0	27.0	91	24.7	0	0	---	0.00	30.321 
04:50	26.7	26.7	26.7	91	24.4	0	0	---	0.00	30.321 
04:55	26.6	26.6	26.6	91	24.3	0	0	---	0.00	30.321 
05:00	26.4	26.4	26.4	91	24.1	0	0	---	0.00	30.327 
05:05	26.1	26.1	26.1	91	23.8	0	0	---	0.00	30.327 
05:10	26.1	26.1	26.1	91	23.8	0	0	---	0.00	30.327 
05:15	26.4	26.4	26.4	92	24.4	0	0	---	0.00	30.330 
05:20	26.4	26.4	26.4	92	24.4	0	0	---	0.00	30.330 
05:25	26.3	26.3	26.3	92	24.3	0	0	---	0.00	30.330 
05:30	26.1	26.1	26.1	92	24.1	0	0	---	0.00	30.339 
05:35	26.0	26.0	26.0	92	24.0	0	0	---	0.00	30.339 
05:40	26.0	26.0	26.0	92	24.0	0	0	---	0.00	30.339 
05:45	25.8	25.8	25.8	92	23.8	0	0	---	0.00	30.338 
05:50	25.7	25.7	25.7	92	23.7	0	0	---	0.00	30.338 
05:55	25.4	25.4	25.4	92	23.4	0	0	---	0.00	30.338 
06:00	25.3	25.3	25.3	92	23.3	0	0	---	0.00	30.343 
06:05	25.3	25.3	25.3	92	23.3	0	0	---	0.00	30.343 
06:10	25.3	25.3	25.3	93	23.6	0	0	---	0.00	30.343 
06:15	25.1	25.1	25.1	92	23.1	0	0	---	0.00	30.347 
06:20	25.0	25.0	25.0	92	23.0	0	0	---	0.00	30.347 
06:25	24.8	24.8	24.8	92	22.8	0	0	---	0.00	30.347 
06:30	24.7	24.7	24.7	92	22.7	0	0	---	0.00	30.349 
06:35	24.5	24.5	24.5	92	22.5	0	0	---	0.00	30.349 
06:40	24.4	24.4	24.4	92	22.4	0	0	---	0.00	30.349 
06:45	24.5	24.5	24.5	93	22.8	0	0	---	0.00	30.347 
06:50	24.5	24.5	24.5	93	22.8	0	0	---	0.00	30.347 
06:55	24.4	24.4	24.4	93	22.7	0	0	---	0.00	30.347 
07:00	24.4	24.4	24.4	93	22.7	0	0	---	0.00	30.347 
07:05	24.2	24.2	24.2	93	22.5	0	0	---	0.00	30.347 
07:10	24.1	24.1	24.1	93	22.4	0	0	---	0.00	30.347 
07:15	24.1	24.1	24.1	93	22.4	0	0	---	0.00	30.361 
07:20	24.1	24.1	24.1	93	22.4	0	0	---	0.00	30.361 
07:25	24.1	24.1	24.1	93	22.4	0	0	---	0.00	30.361 
07:30	24.2	24.2	24.2	93	22.5	0	0	---	0.00	30.373 
07:35	24.2	24.2	24.2	93	22.5	0	1	292	0.00	30.373 
07:40	24.2	24.2	24.2	93	22.5	0	0	---	0.00	30.373 
07:45	24.4	24.4	24.4	93	22.7	0	0	---	0.00	30.380 
07:50	24.8	24.8	24.8	94	23.3	0	1	292	0.00	30.380 
07:55	25.4	25.4	25.4	95	24.2	0	1	292	0.00	30.380 
08:00	25.7	25.7	25.7	95	24.5	0	1	292	0.00	30.381 
08:05	25.8	25.8	25.8	95	24.6	0	0	---	0.00	30.381 
08:10	25.8	25.8	25.8	95	24.6	0	0	---	0.00	30.381 
08:15	25.8	25.8	25.8	95	24.6	0	0	---	0.00	30.392 
08:20	25.8	25.8	25.8	94	24.3	0	0	---	0.00	30.392 
08:25	25.7	25.7	25.7	94	24.2	0	0	---	0.00	30.392 
08:30	25.6	25.6	25.6	94	24.1	0	0	---	0.00	30.391 
08:35	25.4	25.4	25.4	94	23.9	0	0	---	0.00	30.391 
08:40	25.3	25.3	25.3	94	23.8	0	0	---	0.00	30.391 
08:45	25.4	25.4	25.4	94	23.9	0	0	---	0.00	30.395 
08:50	25.4	25.4	25.4	94	23.9	0	0	---	0.00	30.395 
08:55	25.7	25.7	25.7	95	24.5	0	0	---	0.00	30.395 
09:00	26.3	26.3	26.3	95	25.1	0	1	292	0.00	30.404 
09:05	26.7	26.7	26.7	95	25.5	0	1	292	0.00	30.404 
09:10	27.5	27.5	27.5	96	26.5	0	2	270	0.00	30.404 
09:15	28.1	28.1	28.1	96	27.1	0	1	270	0.00	30.406 
09:20	28.7	28.7	28.7	96	27.7	0	1	270	0.00	30.406 
09:25	29.1	29.1	29.1	96	28.1	0	1	270	0.00	30.406 
09:30	29.5	29.5	29.5	96	28.5	0	2	270	0.00	30.405 
09:35	30.0	30.0	30.0	96	29.0	0	2	270	0.00	30.405 
09:40	30.4	30.4	30.4	96	29.4	1	3	248	0.00	30.405 
09:45	30.7	30.7	30.7	96	29.7	1	4	248	0.00	30.407 
09:50	31.0	31.0	31.0	96	30.0	0	2	248	0.00	30.407 
09:55	31.5	31.5	31.5	95	30.2	1	3	248	0.00	30.407 
10:00	31.9	31.9	31.9	94	30.4	1	3	248	0.00	30.408 
10:05	32.4	32.4	32.4	92	30.3	1	3	248	0.00	30.408 
10:10	32.7	32.7	32.7	92	30.6	0	1	248	0.00	30.408 
10:15	33.1	33.1	33.1	91	30.8	0	2	248	0.00	30.411 
10:20	33.5	33.5	33.5	89	30.6	1	3	248	0.00	30.411 
10:25	34.0	34.0	34.0	88	30.8	1	2	248	0.00	30.411 
10:30	34.4	34.4	34.4	86	30.7	1	5	248	0.00	30.416 
10:35	34.9	34.9	34.9	83	30.3	1	5	248	0.00	30.416 
10:40	35.3	35.3	35.3	82	30.4	1	4	248	0.00	30.416 
10:45	35.8	35.8	35.8	81	30.6	1	4	248	0.00	30.414 
10:50	36.2	36.2	36.2	80	30.6	2	4	248	0.00	30.414 
10:55	36.5	36.5	36.5	79	30.6	2	4	248	0.00	30.414 
11:00	36.9	36.9	36.9	77	30.4	2	6	248	0.00	30.415 
11:05	37.2	37.2	37.2	77	30.7	1	4	248	0.00	30.415 
11:10	37.3	37.3	37.3	76	30.4	1	5	248	0.00	30.415 
11:15	37.8	37.8	37.8	76	30.9	2	5	248	0.00	30.409 
11:20	38.0	38.0	38.0	74	30.5	2	5	225	0.01	30.409 
11:25	38.3	38.3	38.3	73	30.4	3	7	270	0.00	30.409 
11:30	38.5	38.5	38.5	74	30.9	2	4	248	0.00	30.401 
11:35	38.8	38.8	38.8	73	30.9	2	5	248	0.00	30.401 
11:40	38.9	38.9	38.9	72	30.7	2	5	270	0.00	30.401 
11:45	39.2	39.2	39.2	74	31.6	1	3	248	0.00	30.388 
11:50	39.3	39.3	39.3	72	31.0	2	6	248	0.00	30.388 
11:55	39.5	39.5	39.5	72	31.2	3	6	270	0.00	30.388 
12:00	39.5	36.7	39.5	69	30.2	4	9	248	0.00	30.381 
12:05	39.6	36.9	39.6	69	30.3	4	7	248	0.00	30.381 
12:10	39.9	39.9	39.9	71	31.3	2	5	248	0.00	30.381 
12:15	40.1	40.1	40.1	71	31.5	2	6	248	0.00	30.371 
12:20	40.3	40.3	40.3	70	31.3	2	4	248	0.00	30.371 
12:25	40.5	40.5	40.5	69	31.1	1	4	270	0.00	30.371 
12:30	40.5	40.5	40.5	67	30.4	2	5	248	0.00	30.369 
12:35	40.8	40.8	40.8	69	31.4	1	4	248	0.00	30.369 
12:40	40.9	40.9	40.9	67	30.8	2	5	248	0.00	30.369 
12:45	41.1	41.1	41.1	66	30.6	3	7	248	0.00	30.362 
12:50	41.1	41.1	41.1	65	30.2	3	6	248	0.00	30.362 
12:55	41.1	38.6	41.1	63	29.5	4	10	248	0.00	30.362 
13:00	41.2	41.2	41.2	64	30.0	3	7	248	0.00	30.359 
13:05	41.3	38.8	41.3	64	30.1	4	7	248	0.00	30.359 
13:10	41.3	41.3	41.3	63	29.7	3	7	248	0.00	30.359 
13:15	41.5	41.5	41.5	65	30.6	2	5	270	0.00	30.346 
13:20	41.8	41.8	41.8	67	31.7	2	6	248	0.00	30.346 
13:25	42.1	42.1	42.1	65	31.2	3	9	248	0.00	30.346 
13:30	42.1	39.7	42.1	62	30.0	4	8	248	0.00	30.342 
13:35	42.1	42.1	42.1	65	31.2	3	10	270	0.00	30.342 
13:40	42.5	42.5	42.5	62	30.4	3	8	270	0.00	30.342 
13:45	42.6	42.6	42.6	64	31.3	2	5	248	0.00	30.338 
13:50	42.6	42.6	42.6	63	30.9	2	5	248	0.00	30.338 
13:55	42.8	42.8	42.8	62	30.7	2	7	248	0.00	30.338 
14:00	42.8	42.8	42.8	62	30.7	3	7	270	0.00	30.333 
14:05	42.8	42.8	42.8	63	31.1	3	7	248	0.00	30.333 
14:10	42.8	42.8	42.8	62	30.7	3	7	248	0.00	30.333 
14:15	42.9	40.7	42.9	61	30.4	4	9	248	0.00	30.327 
14:20	42.8	42.8	42.8	62	30.7	3	7	270	0.00	30.327 
14:25	42.8	40.6	42.8	60	29.9	4	10	248	0.00	30.327 
14:30	42.8	42.8	42.8	62	30.7	3	6	248	0.00	30.331 
14:35	42.8	40.6	42.8	61	30.3	4	10	248	0.00	30.331 
14:40	42.9	42.9	42.9	62	30.8	3	7	270	0.00	30.331 
14:45	42.9	42.9	42.9	62	30.8	2	6	270	0.00	30.328 
14:50	42.9	42.9	42.9	61	30.4	3	7	225	0.00	30.328 
14:55	43.1	43.1	43.1	62	31.0	2	7	248	0.00	30.328 
15:00	42.9	40.7	42.9	62	30.8	4	9	248	0.00	30.324 
15:05	42.9	40.7	42.9	62	30.8	4	10	248	0.00	30.324 
15:10	43.1	43.1	43.1	62	31.0	1	4	248	0.00	30.324 
15:15	43.1	43.1	43.1	62	31.0	2	5	248	0.00	30.323 
15:20	42.8	42.8	42.8	63	31.1	2	6	248	0.00	30.323 
15:25	42.8	42.8	42.8	64	31.5	1	4	248	0.00	30.323 
15:30	42.9	42.9	42.9	64	31.6	2	5	248	0.00	30.323 
15:35	43.1	43.1	43.1	65	32.1	1	5	248	0.00	30.323 
15:40	43.3	43.3	43.3	63	31.6	2	5	270	0.00	30.323 
15:45	43.5	43.5	43.5	62	31.4	2	4	270	0.00	30.319 
15:50	43.6	43.6	43.6	61	31.0	2	5	248	0.00	30.319 
15:55	43.6	43.6	43.6	62	31.5	2	5	248	0.00	30.319 
16:00	43.5	43.5	43.5	63	31.8	2	5	248	0.00	30.322 
16:05	43.1	43.1	43.1	64	31.8	2	5	248	0.00	30.322 
16:10	42.9	42.9	42.9	63	31.2	2	4	248	0.00	30.322 
16:15	42.8	42.8	42.8	64	31.5	2	5	248	0.00	30.326 
16:20	42.6	42.6	42.6	65	31.7	1	4	248	0.00	30.326 
16:25	42.2	42.2	42.2	66	31.7	1	4	248	0.00	30.326 
16:30	41.8	41.8	41.8	66	31.3	1	3	248	0.00	30.324 
16:35	41.5	41.5	41.5	67	31.4	2	5	248	0.00	30.324 
16:40	41.5	41.5	41.5	68	31.7	1	4	248	0.00	30.324 
16:45	41.2	41.2	41.2	68	31.5	1	4	270	0.00	30.326 
16:50	41.1	41.1	41.1	68	31.4	1	3	248	0.00	30.326 
16:55	40.9	40.9	40.9	68	31.2	2	6	248	0.00	30.326 
17:00	40.6	40.6	40.6	69	31.2	1	5	248	0.00	30.327 
17:05	40.5	40.5	40.5	70	31.5	1	3	248	0.00	30.327 
17:10	40.3	40.3	40.3	70	31.3	1	6	248	0.00	30.327 
17:15	40.1	40.1	40.1	70	31.1	1	5	248	0.00	30.327 
17:20	39.9	39.9	39.9	71	31.3	1	6	225	0.00	30.327 
17:25	39.5	39.5	39.5	72	31.2	1	4	225	0.00	30.327 
17:30	39.3	39.3	39.3	73	31.4	0	2	248	0.00	30.320 
17:35	38.9	38.9	38.9	73	31.0	0	2	248	0.00	30.320 
17:40	38.6	38.6	38.6	74	31.0	0	2	0	0.00	30.320 
17:45	38.3	38.3	38.3	75	31.1	0	2	248	0.00	30.323 
17:50	38.2	38.2	38.2	76	31.3	0	1	248	0.00	30.323 
17:55	38.0	38.0	38.0	76	31.1	0	1	248	0.00	30.323 
18:00	37.8	37.8	37.8	77	31.2	0	2	248	0.00	30.330 
18:05	37.6	37.6	37.6	77	31.1	0	2	248	0.00	30.330 
18:10	37.6	37.6	37.6	77	31.1	0	1	248	0.00	30.330 
18:15	37.3	37.3	37.3	78	31.1	0	1	248	0.00	30.327 
18:20	37.2	37.2	37.2	78	31.0	0	1	248	0.00	30.327 
18:25	36.9	36.9	36.9	79	31.0	0	1	248	0.00	30.327 
18:30	36.8	36.8	36.8	80	31.2	0	1	248	0.00	30.317 
18:35	36.5	36.5	36.5	80	30.9	0	1	248	0.00	30.317 
18:40	36.2	36.2	36.2	81	30.9	0	1	248	0.00	30.317 
18:45	35.9	35.9	35.9	81	30.6	0	1	248	0.00	30.315 
18:50	35.8	35.8	35.8	82	30.9	0	0	---	0.00	30.315 
18:55	35.6	35.6	35.6	82	30.7	0	1	248	0.00	30.315 
19:00	35.5	35.5	35.5	83	30.9	0	1	248	0.00	30.307 
19:05	35.3	35.3	35.3	83	30.7	0	1	248	0.00	30.307 
19:10	35.3	35.3	35.3	84	31.0	0	1	248	0.00	30.307 
19:15	35.2	35.2	35.2	84	30.9	0	2	248	0.00	30.301 
19:20	35.3	35.3	35.3	84	31.0	0	1	248	0.00	30.301 
19:25	35.3	35.3	35.3	84	31.0	0	1	248	0.00	30.301 
19:30	35.2	35.2	35.2	84	30.9	0	2	248	0.00	30.303 
19:35	35.2	35.2	35.2	84	30.9	0	1	248	0.00	30.303 
19:40	35.3	35.3	35.3	84	31.0	0	2	248	0.00	30.303 
19:45	35.3	35.3	35.3	84	31.0	0	2	248	0.00	30.303 
19:50	35.2	35.2	35.2	83	30.6	0	1	248	0.00	30.303 
19:55	34.9	34.9	34.9	84	30.6	0	2	248	0.00	30.303 
20:00	34.9	34.9	34.9	84	30.6	0	2	248	0.00	30.303 
20:05	35.0	35.0	35.0	84	30.7	0	2	315	0.00	30.303 
20:10	35.0	35.0	35.0	84	30.7	0	1	315	0.00	30.303 
20:15	35.2	35.2	35.2	84	30.9	0	2	292	0.00	30.301 
20:20	35.3	35.3	35.3	84	31.0	1	4	270	0.00	30.301 
20:25	35.5	35.5	35.5	84	31.2	1	2	248	0.00	30.301 
20:30	35.5	35.5	35.5	84	31.2	1	4	248	0.00	30.298 
20:35	35.3	35.3	35.3	84	31.0	1	3	225	0.00	30.298 
20:40	35.3	35.3	35.3	84	31.0	1	3	248	0.00	30.298 
20:45	35.3	35.3	35.3	84	31.0	1	7	248	0.00	30.298 
20:50	35.3	35.3	35.3	84	31.0	1	4	248	0.00	30.298 
20:55	35.2	35.2	35.2	84	30.9	1	2	270	0.00	30.298 
21:00	35.0	35.0	35.0	84	30.7	1	3	248	0.00	30.288 
21:05	35.0	35.0	35.0	85	31.0	1	3	248	0.00	30.288 
21:10	34.9	34.9	34.9	85	30.9	0	2	248	0.00	30.288 
21:15	34.9	34.9	34.9	85	30.9	1	3	248	0.00	30.280 
21:20	34.7	34.7	34.7	85	30.7	0	3	248	0.00	30.280 
21:25	34.7	34.7	34.7	85	30.7	0	3	248	0.00	30.280 
21:30	34.6	34.6	34.6	86	30.9	0	3	248	0.00	30.276 
21:35	34.7	34.7	34.7	86	30.9	0	2	248	0.00	30.276 
21:40	34.6	34.6	34.6	86	30.9	0	2	248	0.00	30.276 
21:45	34.6	34.6	34.6	86	30.9	0	2	248	0.00	30.267 
21:50	34.6	34.6	34.6	86	30.9	0	3	248	0.00	30.267 
21:55	34.6	34.6	34.6	86	30.9	0	2	248	0.00	30.267 
22:00	34.7	34.7	34.7	87	31.2	0	3	248	0.00	30.266 
22:05	34.9	34.9	34.9	86	31.1	0	1	248	0.00	30.266 
22:10	34.9	34.9	34.9	86	31.1	1	3	248	0.00	30.266 
22:15	34.9	34.9	34.9	86	31.1	0	3	248	0.00	30.260 
22:20	35.0	35.0	35.0	86	31.2	1	4	225	0.00	30.260 
22:25	35.0	35.0	35.0	86	31.2	0	2	225	0.00	30.260 
22:30	35.0	35.0	35.0	86	31.2	0	2	248	0.00	30.262 
22:35	35.0	35.0	35.0	86	31.2	0	1	248	0.00	30.262 
22:40	35.0	35.0	35.0	86	31.2	0	4	248	0.00	30.262 
22:45	35.0	35.0	35.0	86	31.2	0	2	248	0.00	30.259 
22:50	35.2	35.2	35.2	86	31.4	1	3	248	0.00	30.259 
22:55	35.3	35.3	35.3	85	31.2	1	2	248	0.00	30.259 
23:00	35.5	35.5	35.5	85	31.4	1	3	248	0.00	30.263 
23:05	35.5	35.5	35.5	85	31.4	1	4	248	0.00	30.263 
23:10	35.5	35.5	35.5	85	31.4	0	2	248	0.00	30.263 
23:15	35.5	35.5	35.5	85	31.4	1	3	248	0.00	30.256 
23:20	35.5	35.5	35.5	85	31.4	1	4	248	0.00	30.256 
23:25	35.5	35.5	35.5	85	31.4	1	4	248	0.00	30.256 
23:30	35.5	35.5	35.5	85	31.4	1	3	248	0.00	30.254 
23:35	35.5	35.5	35.5	85	31.4	1	4	248	0.00	30.254 
23:40	35.5	35.5	35.5	85	31.4	1	3	248	0.00	30.254 
23:45	35.5	35.5	35.5	85	31.4	2	5	248	0.00	30.253 
23:50	35.5	35.5	35.5	84	31.2	1	2	248	0.00	30.253 
23:55	35.5	35.5	35.5	85	31.4	0	2	248	0.00	30.253 

CoCoRaHS
IN-AL-39
A2 Web Hosting
Creative Commons License
GoDaddy
Look for:

loaded 2017-12-12 14:45:16 • last modified 2010-11-18 10:43:29
Privacy PolicyDisclaimer
• wx.awcolley.com is powered by PmWiki v.2002016 •
• all content (unless otherwise noted) © 2017 A W Colley